Denver, Colorado
Traffic Map
Current Weather Conditions
Denver, Colorado
Few Clouds
Few Clouds

Feels Like: -2°
Wind Chill: -2° Ceiling: Unl
Heat Index: Visibility: 10mi
Dew Point: -3° Wind: 9mph
Humidity: 73% Direction: 130° (SE)
Pressure: 29.86in Gusts: 0mph
Raw Report DataKBKF 200958Z 13008KT 10SM FEW100 FEW200 02/M03 A2986 RMK AO2A SLP083 T00161028
Traffic Incident Summary
Active as of:
Severity:
Category:
InformationThere was an issue retrieving the traffic information for this location. Please try a different location or try again shortly.
Advertisements
Track Severe Weather on mobile